X  Schlie├čen METAR Luftfahrt Wetterdaten     LGRX Patras Araxos Agamemnon Airport
Temperatur
15°C Temperatur
14°C Taupunkt
94% Feuchtigkeit



Wind
3 MPS
5 KM/S
1 M/S
3 KTS



Kein Wind
N
Aktuelle Wetterlage

Meistens vereinzelte Wolken Meistens vereinzelte Wolken
Luftdruck 1008.81 (hPa) - 29.79 (inHg)
Sichtweite 6 (Meile) - 9.7 (Km)
Flughafen
Flughafen Code LGRX

Position : Patras Araxos Agamemnon Airport
Entfernung: 108 (mi)

Metar:
LGRX 291550Z VRB03KT 9999 SCT025 BKN080 15/14 Q1009

Zeit: 29-11-2023 17:50 EET